sensor_id;sensor_type;location;lat;lon;timestamp;P1;durP1;ratioP1;P2;durP2;ratioP2
44169;SDS011;29836;52.286;9.576;2023-10-09T00:00:32;3.55;;;1.33;;
44169;SDS011;29836;52.286;9.576;2023-10-09T00:03:03;1.95;;;0.98;;
44169;SDS011;29836;52.286;9.576;2023-10-09T00:05:31;2.03;;;1.05;;
44169;SDS011;29836;52.286;9.576;2023-10-09T00:08:16;2.33;;;1.10;;
44169;SDS011;29836;52.286;9.576;2023-10-09T00:10:50;2.28;;;1.20;;
44169;SDS011;29836;52.286;9.576;2023-10-09T00:15:58;1.45;;;0.88;;
44169;SDS011;29836;52.286;9.576;2023-10-09T00:18:33;4.43;;;1.10;;
44169;SDS011;29836;52.286;9.576;2023-10-09T00:20:59;1.98;;;0.93;;
44169;SDS011;29836;52.286;9.576;2023-10-09T00:23:27;2.17;;;1.20;;
44169;SDS011;29836;52.286;9.576;2023-10-09T00:25:53;1.58;;;0.95;;
44169;SDS011;29836;52.286;9.576;2023-10-09T00:28:38;2.67;;;1.10;;
44169;SDS011;29836;52.286;9.576;2023-10-09T00:31:08;6.78;;;1.25;;
44169;SDS011;29836;52.286;9.576;2023-10-09T00:33:39;1.63;;;1.00;;
44169;SDS011;29836;52.286;9.576;2023-10-09T00:36:05;3.05;;;0.90;;
44169;SDS011;29836;52.286;9.576;2023-10-09T00:38:34;3.33;;;1.20;;
44169;SDS011;29836;52.286;9.576;2023-10-09T00:41:00;3.13;;;1.25;;
44169;SDS011;29836;52.286;9.576;2023-10-09T00:43:35;2.95;;;1.08;;
44169;SDS011;29836;52.286;9.576;2023-10-09T00:46:02;3.70;;;1.20;;
44169;SDS011;29836;52.286;9.576;2023-10-09T00:48:46;2.35;;;1.13;;
44169;SDS011;29836;52.286;9.576;2023-10-09T00:51:13;3.50;;;1.30;;
44169;SDS011;29836;52.286;9.576;2023-10-09T00:53:44;3.35;;;1.17;;
44169;SDS011;29836;52.286;9.576;2023-10-09T00:56:16;2.90;;;1.20;;
44169;SDS011;29836;52.286;9.576;2023-10-09T00:58:54;5.90;;;1.40;;
44169;SDS011;29836;52.286;9.576;2023-10-09T01:01:34;3.35;;;1.40;;
44169;SDS011;29836;52.286;9.576;2023-10-09T01:04:01;3.75;;;1.77;;
44169;SDS011;29836;52.286;9.576;2023-10-09T01:06:32;7.65;;;1.92;;
44169;SDS011;29836;52.286;9.576;2023-10-09T01:08:59;4.00;;;1.63;;
44169;SDS011;29836;52.286;9.576;2023-10-09T01:11:35;4.05;;;1.70;;
44169;SDS011;29836;52.286;9.576;2023-10-09T01:14:12;4.93;;;1.92;;
44169;SDS011;29836;52.286;9.576;2023-10-09T01:16:38;3.30;;;1.55;;
44169;SDS011;29836;52.286;9.576;2023-10-09T01:19:06;4.50;;;1.88;;
44169;SDS011;29836;52.286;9.576;2023-10-09T01:21:38;3.75;;;1.48;;
44169;SDS011;29836;52.286;9.576;2023-10-09T01:24:05;4.43;;;1.80;;
44169;SDS011;29836;52.286;9.576;2023-10-09T01:26:37;6.75;;;2.17;;
44169;SDS011;29836;52.286;9.576;2023-10-09T01:29:05;6.03;;;1.83;;
44169;SDS011;29836;52.286;9.576;2023-10-09T01:31:35;6.70;;;2.38;;
44169;SDS011;29836;52.286;9.576;2023-10-09T01:34:03;5.13;;;2.42;;
44169;SDS011;29836;52.286;9.576;2023-10-09T01:36:35;7.93;;;2.25;;
44169;SDS011;29836;52.286;9.576;2023-10-09T01:39:04;6.80;;;1.85;;
44169;SDS011;29836;52.286;9.576;2023-10-09T01:41:48;4.38;;;1.98;;
44169;SDS011;29836;52.286;9.576;2023-10-09T01:44:23;8.23;;;2.33;;
44169;SDS011;29836;52.286;9.576;2023-10-09T01:46:51;7.25;;;2.50;;
44169;SDS011;29836;52.286;9.576;2023-10-09T01:49:20;6.50;;;2.20;;
44169;SDS011;29836;52.286;9.576;2023-10-09T01:51:55;7.10;;;2.70;;
44169;SDS011;29836;52.286;9.576;2023-10-09T01:54:24;7.55;;;3.03;;
44169;SDS011;29836;52.286;9.576;2023-10-09T01:57:02;6.05;;;3.20;;
44169;SDS011;29836;52.286;9.576;2023-10-09T01:59:33;8.02;;;3.00;;
44169;SDS011;29836;52.286;9.576;2023-10-09T02:02:03;6.38;;;2.97;;
44169;SDS011;29836;52.286;9.576;2023-10-09T02:04:41;6.45;;;2.72;;
44169;SDS011;29836;52.286;9.576;2023-10-09T02:07:06;6.68;;;2.40;;
44169;SDS011;29836;52.286;9.576;2023-10-09T02:09:33;5.75;;;2.28;;
44169;SDS011;29836;52.286;9.576;2023-10-09T02:12:00;5.55;;;2.40;;
44169;SDS011;29836;52.286;9.576;2023-10-09T02:14:27;6.72;;;2.38;;
44169;SDS011;29836;52.286;9.576;2023-10-09T02:16:53;6.70;;;2.30;;
44169;SDS011;29836;52.286;9.576;2023-10-09T02:19:30;8.18;;;2.10;;
44169;SDS011;29836;52.286;9.576;2023-10-09T02:22:00;6.63;;;2.15;;
44169;SDS011;29836;52.286;9.576;2023-10-09T02:24:38;4.30;;;2.00;;
44169;SDS011;29836;52.286;9.576;2023-10-09T02:27:18;4.38;;;1.98;;
44169;SDS011;29836;52.286;9.576;2023-10-09T02:30:02;5.38;;;2.40;;
44169;SDS011;29836;52.286;9.576;2023-10-09T02:32:42;6.30;;;2.58;;
44169;SDS011;29836;52.286;9.576;2023-10-09T02:35:09;5.38;;;2.50;;
44169;SDS011;29836;52.286;9.576;2023-10-09T02:37:56;7.63;;;2.42;;
44169;SDS011;29836;52.286;9.576;2023-10-09T02:40:26;6.20;;;2.70;;
44169;SDS011;29836;52.286;9.576;2023-10-09T02:42:57;5.95;;;2.83;;
44169;SDS011;29836;52.286;9.576;2023-10-09T02:45:23;5.45;;;2.78;;
44169;SDS011;29836;52.286;9.576;2023-10-09T02:47:53;7.47;;;3.45;;
44169;SDS011;29836;52.286;9.576;2023-10-09T02:50:20;8.60;;;4.22;;
44169;SDS011;29836;52.286;9.576;2023-10-09T02:52:47;10.80;;;4.30;;
44169;SDS011;29836;52.286;9.576;2023-10-09T02:55:17;9.73;;;4.63;;
44169;SDS011;29836;52.286;9.576;2023-10-09T02:57:55;13.05;;;5.78;;
44169;SDS011;29836;52.286;9.576;2023-10-09T03:00:29;16.35;;;6.18;;
44169;SDS011;29836;52.286;9.576;2023-10-09T03:03:01;16.13;;;6.93;;
44169;SDS011;29836;52.286;9.576;2023-10-09T03:05:31;25.63;;;8.50;;
44169;SDS011;29836;52.286;9.576;2023-10-09T03:07:57;19.67;;;8.48;;
44169;SDS011;29836;52.286;9.576;2023-10-09T03:10:22;24.23;;;9.23;;
44169;SDS011;29836;52.286;9.576;2023-10-09T03:12:49;22.38;;;8.65;;
44169;SDS011;29836;52.286;9.576;2023-10-09T03:15:18;23.08;;;9.05;;
44169;SDS011;29836;52.286;9.576;2023-10-09T03:17:45;25.38;;;9.70;;
44169;SDS011;29836;52.286;9.576;2023-10-09T03:20:12;21.42;;;9.15;;
44169;SDS011;29836;52.286;9.576;2023-10-09T03:22:39;20.40;;;8.70;;
44169;SDS011;29836;52.286;9.576;2023-10-09T03:25:05;13.90;;;7.55;;
44169;SDS011;29836;52.286;9.576;2023-10-09T03:27:38;23.13;;;10.18;;
44169;SDS011;29836;52.286;9.576;2023-10-09T03:30:18;25.15;;;11.05;;
44169;SDS011;29836;52.286;9.576;2023-10-09T03:32:50;24.98;;;10.88;;
44169;SDS011;29836;52.286;9.576;2023-10-09T03:35:17;24.90;;;11.35;;
44169;SDS011;29836;52.286;9.576;2023-10-09T03:37:50;27.58;;;12.02;;
44169;SDS011;29836;52.286;9.576;2023-10-09T03:40:27;33.63;;;14.00;;
44169;SDS011;29836;52.286;9.576;2023-10-09T03:42:52;41.58;;;16.58;;
44169;SDS011;29836;52.286;9.576;2023-10-09T03:45:21;35.38;;;16.00;;
44169;SDS011;29836;52.286;9.576;2023-10-09T03:47:56;45.00;;;17.02;;
44169;SDS011;29836;52.286;9.576;2023-10-09T03:50:37;42.33;;;17.88;;
44169;SDS011;29836;52.286;9.576;2023-10-09T03:53:04;41.42;;;17.52;;
44169;SDS011;29836;52.286;9.576;2023-10-09T03:55:32;45.25;;;19.67;;
44169;SDS011;29836;52.286;9.576;2023-10-09T03:57:59;44.17;;;18.98;;
44169;SDS011;29836;52.286;9.576;2023-10-09T04:00:27;43.75;;;20.33;;
44169;SDS011;29836;52.286;9.576;2023-10-09T04:02:54;46.20;;;20.95;;
44169;SDS011;29836;52.286;9.576;2023-10-09T04:05:22;49.40;;;22.13;;
44169;SDS011;29836;52.286;9.576;2023-10-09T04:07:48;51.13;;;22.85;;
44169;SDS011;29836;52.286;9.576;2023-10-09T04:10:14;45.13;;;21.23;;
44169;SDS011;29836;52.286;9.576;2023-10-09T04:13:07;37.08;;;19.63;;
44169;SDS011;29836;52.286;9.576;2023-10-09T04:15:36;46.78;;;19.80;;
44169;SDS011;29836;52.286;9.576;2023-10-09T04:18:02;45.03;;;20.52;;
44169;SDS011;29836;52.286;9.576;2023-10-09T04:20:30;44.83;;;21.38;;
44169;SDS011;29836;52.286;9.576;2023-10-09T04:23:16;46.00;;;20.17;;
44169;SDS011;29836;52.286;9.576;2023-10-09T04:25:58;46.47;;;21.33;;
44169;SDS011;29836;52.286;9.576;2023-10-09T04:28:24;51.10;;;22.45;;
44169;SDS011;29836;52.286;9.576;2023-10-09T04:30:50;45.63;;;21.48;;
44169;SDS011;29836;52.286;9.576;2023-10-09T04:33:20;51.08;;;22.73;;
44169;SDS011;29836;52.286;9.576;2023-10-09T04:38:48;51.92;;;23.67;;
44169;SDS011;29836;52.286;9.576;2023-10-09T04:41:28;50.00;;;23.35;;
44169;SDS011;29836;52.286;9.576;2023-10-09T04:43:58;50.50;;;24.45;;
44169;SDS011;29836;52.286;9.576;2023-10-09T04:46:43;50.72;;;23.88;;
44169;SDS011;29836;52.286;9.576;2023-10-09T04:49:32;50.13;;;23.77;;
44169;SDS011;29836;52.286;9.576;2023-10-09T04:52:13;58.83;;;23.45;;
44169;SDS011;29836;52.286;9.576;2023-10-09T04:54:54;43.03;;;20.80;;
44169;SDS011;29836;52.286;9.576;2023-10-09T04:57:35;47.70;;;20.85;;
44169;SDS011;29836;52.286;9.576;2023-10-09T05:02:53;45.45;;;21.35;;
44169;SDS011;29836;52.286;9.576;2023-10-09T05:05:23;47.80;;;22.23;;
44169;SDS011;29836;52.286;9.576;2023-10-09T05:10:45;55.60;;;21.23;;
44169;SDS011;29836;52.286;9.576;2023-10-09T05:13:23;52.95;;;20.95;;
44169;SDS011;29836;52.286;9.576;2023-10-09T05:16:37;49.88;;;20.58;;
44169;SDS011;29836;52.286;9.576;2023-10-09T05:18:58;48.25;;;20.52;;
44169;SDS011;29836;52.286;9.576;2023-10-09T05:21:44;50.97;;;20.40;;
44169;SDS011;29836;52.286;9.576;2023-10-09T05:24:10;45.50;;;18.08;;
44169;SDS011;29836;52.286;9.576;2023-10-09T05:26:43;44.58;;;18.98;;
44169;SDS011;29836;52.286;9.576;2023-10-09T05:29:09;46.85;;;19.13;;
44169;SDS011;29836;52.286;9.576;2023-10-09T05:31:47;45.45;;;19.17;;
44169;SDS011;29836;52.286;9.576;2023-10-09T05:34:31;41.13;;;18.10;;
44169;SDS011;29836;52.286;9.576;2023-10-09T05:37:20;48.78;;;17.48;;
44169;SDS011;29836;52.286;9.576;2023-10-09T05:39:52;45.33;;;18.75;;
44169;SDS011;29836;52.286;9.576;2023-10-09T05:45:08;46.67;;;19.17;;
44169;SDS011;29836;52.286;9.576;2023-10-09T05:50:29;44.72;;;16.35;;
44169;SDS011;29836;52.286;9.576;2023-10-09T05:53:03;40.92;;;16.17;;
44169;SDS011;29836;52.286;9.576;2023-10-09T05:55:29;40.53;;;17.00;;
44169;SDS011;29836;52.286;9.576;2023-10-09T05:58:14;48.03;;;19.00;;
44169;SDS011;29836;52.286;9.576;2023-10-09T06:00:58;51.95;;;18.92;;
44169;SDS011;29836;52.286;9.576;2023-10-09T06:03:50;46.67;;;18.33;;
44169;SDS011;29836;52.286;9.576;2023-10-09T06:06:29;50.72;;;18.85;;
44169;SDS011;29836;52.286;9.576;2023-10-09T06:11:42;51.20;;;19.40;;
44169;SDS011;29836;52.286;9.576;2023-10-09T06:14:23;52.20;;;20.45;;
44169;SDS011;29836;52.286;9.576;2023-10-09T06:16:55;45.83;;;18.83;;
44169;SDS011;29836;52.286;9.576;2023-10-09T06:19:22;56.42;;;20.30;;
44169;SDS011;29836;52.286;9.576;2023-10-09T06:21:56;50.20;;;20.00;;
44169;SDS011;29836;52.286;9.576;2023-10-09T06:24:29;43.65;;;19.38;;
44169;SDS011;29836;52.286;9.576;2023-10-09T06:27:11;43.22;;;18.23;;
44169;SDS011;29836;52.286;9.576;2023-10-09T06:29:38;53.72;;;20.30;;
44169;SDS011;29836;52.286;9.576;2023-10-09T06:32:11;42.85;;;19.13;;
44169;SDS011;29836;52.286;9.576;2023-10-09T06:34:49;45.28;;;17.80;;
44169;SDS011;29836;52.286;9.576;2023-10-09T06:37:19;43.28;;;18.20;;
44169;SDS011;29836;52.286;9.576;2023-10-09T06:39:49;42.50;;;18.23;;
44169;SDS011;29836;52.286;9.576;2023-10-09T06:42:30;40.80;;;17.75;;
44169;SDS011;29836;52.286;9.576;2023-10-09T06:44:59;45.67;;;19.58;;
44169;SDS011;29836;52.286;9.576;2023-10-09T06:47:28;45.45;;;19.00;;
44169;SDS011;29836;52.286;9.576;2023-10-09T06:50:02;45.67;;;18.23;;
44169;SDS011;29836;52.286;9.576;2023-10-09T06:52:46;43.10;;;19.17;;
44169;SDS011;29836;52.286;9.576;2023-10-09T06:55:37;47.33;;;18.70;;
44169;SDS011;29836;52.286;9.576;2023-10-09T06:58:16;46.25;;;19.40;;
44169;SDS011;29836;52.286;9.576;2023-10-09T07:00:51;46.28;;;19.50;;
44169;SDS011;29836;52.286;9.576;2023-10-09T07:03:37;46.50;;;19.20;;
44169;SDS011;29836;52.286;9.576;2023-10-09T07:06:17;48.40;;;20.17;;
44169;SDS011;29836;52.286;9.576;2023-10-09T07:08:56;43.95;;;18.85;;
44169;SDS011;29836;52.286;9.576;2023-10-09T07:11:33;47.92;;;19.15;;
44169;SDS011;29836;52.286;9.576;2023-10-09T07:14:09;48.60;;;19.17;;
44169;SDS011;29836;52.286;9.576;2023-10-09T07:16:57;44.75;;;20.65;;
44169;SDS011;29836;52.286;9.576;2023-10-09T07:19:41;44.65;;;18.90;;
44169;SDS011;29836;52.286;9.576;2023-10-09T07:22:08;45.83;;;18.60;;
44169;SDS011;29836;52.286;9.576;2023-10-09T07:27:31;48.85;;;19.23;;
44169;SDS011;29836;52.286;9.576;2023-10-09T07:30:09;42.50;;;18.33;;
44169;SDS011;29836;52.286;9.576;2023-10-09T07:33:01;46.37;;;18.60;;
44169;SDS011;29836;52.286;9.576;2023-10-09T07:38:11;41.97;;;18.65;;
44169;SDS011;29836;52.286;9.576;2023-10-09T07:40:40;46.75;;;18.27;;
44169;SDS011;29836;52.286;9.576;2023-10-09T07:43:28;41.90;;;18.48;;
44169;SDS011;29836;52.286;9.576;2023-10-09T07:46:04;43.45;;;17.33;;
44169;SDS011;29836;52.286;9.576;2023-10-09T07:48:52;48.78;;;18.52;;
44169;SDS011;29836;52.286;9.576;2023-10-09T07:51:21;40.17;;;17.00;;
44169;SDS011;29836;52.286;9.576;2023-10-09T07:53:51;40.55;;;16.85;;
44169;SDS011;29836;52.286;9.576;2023-10-09T07:56:32;43.75;;;17.40;;
44169;SDS011;29836;52.286;9.576;2023-10-09T07:59:03;44.65;;;17.08;;
44169;SDS011;29836;52.286;9.576;2023-10-09T08:01:35;38.88;;;17.35;;
44169;SDS011;29836;52.286;9.576;2023-10-09T08:04:20;38.33;;;15.77;;
44169;SDS011;29836;52.286;9.576;2023-10-09T08:07:13;39.55;;;17.17;;
44169;SDS011;29836;52.286;9.576;2023-10-09T08:09:54;41.30;;;16.88;;
44169;SDS011;29836;52.286;9.576;2023-10-09T08:12:42;37.53;;;16.63;;
44169;SDS011;29836;52.286;9.576;2023-10-09T08:15:15;38.72;;;16.52;;
44169;SDS011;29836;52.286;9.576;2023-10-09T08:17:47;38.78;;;16.95;;
44169;SDS011;29836;52.286;9.576;2023-10-09T08:20:24;36.65;;;15.75;;
44169;SDS011;29836;52.286;9.576;2023-10-09T08:22:51;40.58;;;17.35;;
44169;SDS011;29836;52.286;9.576;2023-10-09T08:25:20;36.25;;;15.80;;
44169;SDS011;29836;52.286;9.576;2023-10-09T08:27:56;32.45;;;15.68;;
44169;SDS011;29836;52.286;9.576;2023-10-09T08:30:43;41.55;;;16.30;;
44169;SDS011;29836;52.286;9.576;2023-10-09T08:33:15;30.00;;;15.13;;
44169;SDS011;29836;52.286;9.576;2023-10-09T08:35:50;31.33;;;14.45;;
44169;SDS011;29836;52.286;9.576;2023-10-09T08:38:16;30.67;;;14.40;;
44169;SDS011;29836;52.286;9.576;2023-10-09T08:40:48;31.10;;;15.50;;
44169;SDS011;29836;52.286;9.576;2023-10-09T08:43:18;32.42;;;14.45;;
44169;SDS011;29836;52.286;9.576;2023-10-09T08:48:26;23.60;;;11.70;;
44169;SDS011;29836;52.286;9.576;2023-10-09T08:50:53;26.58;;;12.90;;
44169;SDS011;29836;52.286;9.576;2023-10-09T08:53:21;28.45;;;13.38;;
44169;SDS011;29836;52.286;9.576;2023-10-09T08:55:48;27.77;;;13.25;;
44169;SDS011;29836;52.286;9.576;2023-10-09T08:58:16;31.63;;;13.77;;
44169;SDS011;29836;52.286;9.576;2023-10-09T09:00:59;28.98;;;13.95;;
44169;SDS011;29836;52.286;9.576;2023-10-09T09:03:26;29.58;;;15.43;;
44169;SDS011;29836;52.286;9.576;2023-10-09T09:06:02;28.73;;;14.55;;
44169;SDS011;29836;52.286;9.576;2023-10-09T09:08:29;28.85;;;15.27;;
44169;SDS011;29836;52.286;9.576;2023-10-09T09:21:42;33.17;;;15.35;;
44169;SDS011;29836;52.286;9.576;2023-10-09T09:24:12;30.83;;;15.88;;
44169;SDS011;29836;52.286;9.576;2023-10-09T09:26:52;30.08;;;16.27;;
44169;SDS011;29836;52.286;9.576;2023-10-09T09:32:05;29.83;;;15.73;;
44169;SDS011;29836;52.286;9.576;2023-10-09T09:34:53;27.70;;;14.55;;
44169;SDS011;29836;52.286;9.576;2023-10-09T09:37:30;23.92;;;14.88;;
44169;SDS011;29836;52.286;9.576;2023-10-09T09:40:08;24.35;;;15.27;;
44169;SDS011;29836;52.286;9.576;2023-10-09T09:42:53;28.23;;;15.15;;
44169;SDS011;29836;52.286;9.576;2023-10-09T09:45:37;29.00;;;14.55;;
44169;SDS011;29836;52.286;9.576;2023-10-09T09:48:03;30.48;;;15.57;;
44169;SDS011;29836;52.286;9.576;2023-10-09T09:50:40;27.77;;;15.40;;
44169;SDS011;29836;52.286;9.576;2023-10-09T09:53:10;28.45;;;14.73;;
44169;SDS011;29836;52.286;9.576;2023-10-09T09:55:41;21.10;;;13.48;;
44169;SDS011;29836;52.286;9.576;2023-10-09T09:58:17;25.48;;;14.80;;
44169;SDS011;29836;52.286;9.576;2023-10-09T10:00:48;29.25;;;14.95;;
44169;SDS011;29836;52.286;9.576;2023-10-09T10:03:27;29.15;;;14.48;;
44169;SDS011;29836;52.286;9.576;2023-10-09T10:05:58;24.05;;;14.32;;
44169;SDS011;29836;52.286;9.576;2023-10-09T10:08:29;21.23;;;13.05;;
44169;SDS011;29836;52.286;9.576;2023-10-09T10:10:59;23.33;;;13.07;;
44169;SDS011;29836;52.286;9.576;2023-10-09T10:16:06;17.43;;;9.83;;
44169;SDS011;29836;52.286;9.576;2023-10-09T10:18:51;18.67;;;9.68;;
44169;SDS011;29836;52.286;9.576;2023-10-09T10:21:24;14.88;;;9.43;;
44169;SDS011;29836;52.286;9.576;2023-10-09T10:23:56;16.55;;;8.80;;
44169;SDS011;29836;52.286;9.576;2023-10-09T10:26:30;16.50;;;9.35;;
44169;SDS011;29836;52.286;9.576;2023-10-09T10:29:32;16.25;;;8.38;;
44169;SDS011;29836;52.286;9.576;2023-10-09T10:31:59;15.77;;;9.43;;
44169;SDS011;29836;52.286;9.576;2023-10-09T10:37:20;16.65;;;10.70;;
44169;SDS011;29836;52.286;9.576;2023-10-09T10:39:53;17.42;;;10.18;;
44169;SDS011;29836;52.286;9.576;2023-10-09T10:42:24;17.92;;;11.73;;
44169;SDS011;29836;52.286;9.576;2023-10-09T10:44:59;21.67;;;13.07;;
44169;SDS011;29836;52.286;9.576;2023-10-09T10:47:40;21.65;;;13.82;;
44169;SDS011;29836;52.286;9.576;2023-10-09T10:50:07;25.17;;;14.25;;
44169;SDS011;29836;52.286;9.576;2023-10-09T10:53:34;22.00;;;15.18;;
44169;SDS011;29836;52.286;9.576;2023-10-09T10:56:00;21.98;;;13.98;;
44169;SDS011;29836;52.286;9.576;2023-10-09T10:58:39;24.65;;;15.75;;
44169;SDS011;29836;52.286;9.576;2023-10-09T11:01:34;25.27;;;15.05;;
44169;SDS011;29836;52.286;9.576;2023-10-09T11:04:25;22.75;;;14.88;;
44169;SDS011;29836;52.286;9.576;2023-10-09T11:06:55;25.08;;;14.15;;
44169;SDS011;29836;52.286;9.576;2023-10-09T11:09:26;24.02;;;13.45;;
44169;SDS011;29836;52.286;9.576;2023-10-09T11:12:07;26.92;;;15.45;;
44169;SDS011;29836;52.286;9.576;2023-10-09T11:14:47;23.15;;;13.95;;
44169;SDS011;29836;52.286;9.576;2023-10-09T11:17:35;23.35;;;13.32;;
44169;SDS011;29836;52.286;9.576;2023-10-09T11:20:04;21.50;;;12.20;;
44169;SDS011;29836;52.286;9.576;2023-10-09T11:22:57;17.83;;;10.52;;
44169;SDS011;29836;52.286;9.576;2023-10-09T11:25:38;20.42;;;10.15;;
44169;SDS011;29836;52.286;9.576;2023-10-09T11:28:21;16.77;;;9.25;;
44169;SDS011;29836;52.286;9.576;2023-10-09T11:31:06;17.65;;;9.18;;
44169;SDS011;29836;52.286;9.576;2023-10-09T11:36:10;13.90;;;7.65;;
44169;SDS011;29836;52.286;9.576;2023-10-09T11:38:36;9.98;;;6.25;;
44169;SDS011;29836;52.286;9.576;2023-10-09T11:41:15;11.15;;;6.10;;
44169;SDS011;29836;52.286;9.576;2023-10-09T11:46:19;8.43;;;5.03;;
44169;SDS011;29836;52.286;9.576;2023-10-09T11:49:24;8.85;;;4.90;;
44169;SDS011;29836;52.286;9.576;2023-10-09T11:52:09;10.30;;;4.88;;
44169;SDS011;29836;52.286;9.576;2023-10-09T11:54:34;8.13;;;5.18;;
44169;SDS011;29836;52.286;9.576;2023-10-09T11:57:01;7.93;;;4.80;;
44169;SDS011;29836;52.286;9.576;2023-10-09T11:59:27;8.25;;;5.03;;
44169;SDS011;29836;52.286;9.576;2023-10-09T12:01:59;10.98;;;5.97;;
44169;SDS011;29836;52.286;9.576;2023-10-09T12:04:26;10.45;;;6.85;;
44169;SDS011;29836;52.286;9.576;2023-10-09T12:06:55;11.23;;;6.30;;
44169;SDS011;29836;52.286;9.576;2023-10-09T12:09:31;10.77;;;6.97;;
44169;SDS011;29836;52.286;9.576;2023-10-09T12:12:03;12.25;;;7.35;;
44169;SDS011;29836;52.286;9.576;2023-10-09T12:14:30;10.75;;;7.05;;
44169;SDS011;29836;52.286;9.576;2023-10-09T12:17:00;11.70;;;7.43;;
44169;SDS011;29836;52.286;9.576;2023-10-09T12:19:31;13.52;;;7.35;;
44169;SDS011;29836;52.286;9.576;2023-10-09T12:22:01;12.88;;;7.88;;
44169;SDS011;29836;52.286;9.576;2023-10-09T12:24:29;15.35;;;8.75;;
44169;SDS011;29836;52.286;9.576;2023-10-09T12:26:55;12.65;;;8.60;;
44169;SDS011;29836;52.286;9.576;2023-10-09T12:29:21;14.52;;;8.70;;
44169;SDS011;29836;52.286;9.576;2023-10-09T12:31:48;16.48;;;8.88;;
44169;SDS011;29836;52.286;9.576;2023-10-09T12:34:23;16.60;;;8.60;;
44169;SDS011;29836;52.286;9.576;2023-10-09T12:36:51;12.02;;;7.60;;
44169;SDS011;29836;52.286;9.576;2023-10-09T12:39:17;15.45;;;7.78;;
44169;SDS011;29836;52.286;9.576;2023-10-09T12:41:43;12.45;;;8.02;;
44169;SDS011;29836;52.286;9.576;2023-10-09T12:44:09;14.90;;;7.90;;
44169;SDS011;29836;52.286;9.576;2023-10-09T12:46:45;10.13;;;6.88;;
44169;SDS011;29836;52.286;9.576;2023-10-09T12:49:20;12.27;;;8.15;;
44169;SDS011;29836;52.286;9.576;2023-10-09T12:51:55;13.32;;;8.23;;
44169;SDS011;29836;52.286;9.576;2023-10-09T12:54:22;13.98;;;8.15;;
44169;SDS011;29836;52.286;9.576;2023-10-09T12:56:52;12.93;;;8.55;;
44169;SDS011;29836;52.286;9.576;2023-10-09T12:59:21;14.20;;;8.65;;
44169;SDS011;29836;52.286;9.576;2023-10-09T13:01:48;12.85;;;8.85;;
44169;SDS011;29836;52.286;9.576;2023-10-09T13:04:22;14.23;;;8.07;;
44169;SDS011;29836;52.286;9.576;2023-10-09T13:06:49;14.88;;;9.25;;
44169;SDS011;29836;52.286;9.576;2023-10-09T13:09:19;13.35;;;8.80;;
44169;SDS011;29836;52.286;9.576;2023-10-09T13:11:59;14.00;;;8.52;;
44169;SDS011;29836;52.286;9.576;2023-10-09T13:14:26;14.65;;;8.82;;
44169;SDS011;29836;52.286;9.576;2023-10-09T13:16:52;14.27;;;9.55;;
44169;SDS011;29836;52.286;9.576;2023-10-09T13:19:17;16.35;;;9.80;;
44169;SDS011;29836;52.286;9.576;2023-10-09T13:21:43;15.85;;;9.05;;
44169;SDS011;29836;52.286;9.576;2023-10-09T13:24:09;13.23;;;8.98;;
44169;SDS011;29836;52.286;9.576;2023-10-09T13:26:40;16.70;;;9.40;;
44169;SDS011;29836;52.286;9.576;2023-10-09T13:29:11;14.20;;;9.52;;
44169;SDS011;29836;52.286;9.576;2023-10-09T13:31:38;13.70;;;9.02;;
44169;SDS011;29836;52.286;9.576;2023-10-09T13:34:11;14.88;;;9.52;;
44169;SDS011;29836;52.286;9.576;2023-10-09T13:36:40;16.55;;;9.65;;
44169;SDS011;29836;52.286;9.576;2023-10-09T13:39:17;14.50;;;9.35;;
44169;SDS011;29836;52.286;9.576;2023-10-09T13:41:56;14.75;;;9.82;;
44169;SDS011;29836;52.286;9.576;2023-10-09T13:44:29;15.15;;;10.45;;
44169;SDS011;29836;52.286;9.576;2023-10-09T13:46:56;14.85;;;9.50;;
44169;SDS011;29836;52.286;9.576;2023-10-09T13:49:23;16.52;;;10.02;;
44169;SDS011;29836;52.286;9.576;2023-10-09T13:51:55;17.00;;;10.65;;
44169;SDS011;29836;52.286;9.576;2023-10-09T13:54:25;14.80;;;10.35;;
44169;SDS011;29836;52.286;9.576;2023-10-09T13:56:57;15.65;;;10.63;;
44169;SDS011;29836;52.286;9.576;2023-10-09T13:59:22;15.38;;;10.38;;
44169;SDS011;29836;52.286;9.576;2023-10-09T14:01:50;15.63;;;10.95;;
44169;SDS011;29836;52.286;9.576;2023-10-09T14:04:19;16.63;;;10.32;;
44169;SDS011;29836;52.286;9.576;2023-10-09T14:06:46;17.02;;;10.45;;
44169;SDS011;29836;52.286;9.576;2023-10-09T14:09:12;15.00;;;9.88;;
44169;SDS011;29836;52.286;9.576;2023-10-09T14:11:59;14.38;;;9.95;;
44169;SDS011;29836;52.286;9.576;2023-10-09T14:14:35;16.02;;;10.20;;
44169;SDS011;29836;52.286;9.576;2023-10-09T14:17:14;15.95;;;10.20;;
44169;SDS011;29836;52.286;9.576;2023-10-09T14:19:44;14.90;;;9.77;;
44169;SDS011;29836;52.286;9.576;2023-10-09T14:22:16;14.82;;;10.05;;
44169;SDS011;29836;52.286;9.576;2023-10-09T14:24:43;15.60;;;9.40;;
44169;SDS011;29836;52.286;9.576;2023-10-09T14:27:13;14.05;;;9.48;;
44169;SDS011;29836;52.286;9.576;2023-10-09T14:29:45;14.27;;;9.48;;
44169;SDS011;29836;52.286;9.576;2023-10-09T14:32:13;15.77;;;9.23;;
44169;SDS011;29836;52.286;9.576;2023-10-09T14:34:40;12.85;;;9.23;;
44169;SDS011;29836;52.286;9.576;2023-10-09T14:37:14;15.30;;;8.70;;
44169;SDS011;29836;52.286;9.576;2023-10-09T14:39:41;15.15;;;9.48;;
44169;SDS011;29836;52.286;9.576;2023-10-09T14:42:07;17.15;;;9.98;;
44169;SDS011;29836;52.286;9.576;2023-10-09T14:44:36;14.77;;;9.73;;
44169;SDS011;29836;52.286;9.576;2023-10-09T14:47:03;15.55;;;9.05;;
44169;SDS011;29836;52.286;9.576;2023-10-09T14:49:30;14.50;;;8.98;;
44169;SDS011;29836;52.286;9.576;2023-10-09T14:52:08;15.43;;;9.43;;
44169;SDS011;29836;52.286;9.576;2023-10-09T14:54:35;16.77;;;9.77;;
44169;SDS011;29836;52.286;9.576;2023-10-09T14:57:00;12.55;;;8.60;;
44169;SDS011;29836;52.286;9.576;2023-10-09T14:59:30;12.63;;;8.65;;
44169;SDS011;29836;52.286;9.576;2023-10-09T15:01:56;16.58;;;9.57;;
44169;SDS011;29836;52.286;9.576;2023-10-09T15:04:23;17.10;;;8.23;;
44169;SDS011;29836;52.286;9.576;2023-10-09T15:06:50;13.27;;;8.23;;
44169;SDS011;29836;52.286;9.576;2023-10-09T15:09:19;11.65;;;7.85;;
44169;SDS011;29836;52.286;9.576;2023-10-09T15:11:50;12.43;;;7.95;;
44169;SDS011;29836;52.286;9.576;2023-10-09T15:14:17;11.27;;;7.60;;
44169;SDS011;29836;52.286;9.576;2023-10-09T15:16:46;11.45;;;7.38;;
44169;SDS011;29836;52.286;9.576;2023-10-09T15:19:12;12.25;;;6.97;;
44169;SDS011;29836;52.286;9.576;2023-10-09T15:21:38;10.93;;;6.80;;
44169;SDS011;29836;52.286;9.576;2023-10-09T15:24:11;10.90;;;6.97;;
44169;SDS011;29836;52.286;9.576;2023-10-09T15:26:44;10.63;;;6.32;;
44169;SDS011;29836;52.286;9.576;2023-10-09T15:29:17;10.20;;;6.45;;
44169;SDS011;29836;52.286;9.576;2023-10-09T15:31:44;12.68;;;6.50;;
44169;SDS011;29836;52.286;9.576;2023-10-09T15:34:11;9.85;;;6.03;;
44169;SDS011;29836;52.286;9.576;2023-10-09T15:36:37;12.43;;;6.30;;
44169;SDS011;29836;52.286;9.576;2023-10-09T15:39:05;13.02;;;6.70;;
44169;SDS011;29836;52.286;9.576;2023-10-09T15:41:33;10.27;;;6.00;;
44169;SDS011;29836;52.286;9.576;2023-10-09T15:43:59;10.75;;;6.13;;
44169;SDS011;29836;52.286;9.576;2023-10-09T15:46:26;10.68;;;5.43;;
44169;SDS011;29836;52.286;9.576;2023-10-09T15:48:52;8.93;;;4.90;;
44169;SDS011;29836;52.286;9.576;2023-10-09T15:51:18;8.75;;;5.50;;
44169;SDS011;29836;52.286;9.576;2023-10-09T15:53:44;8.95;;;5.03;;
44169;SDS011;29836;52.286;9.576;2023-10-09T15:56:11;12.10;;;5.95;;